createdAt,value
2023-01-18T00:01:30.771Z,-0.70
2023-01-18T00:03:36.003Z,-0.70
2023-01-18T00:05:41.118Z,-0.80
2023-01-18T00:07:42.938Z,-0.80
2023-01-18T00:09:44.577Z,-0.80
2023-01-18T00:11:48.833Z,-0.90
2023-01-18T00:13:50.481Z,-0.80
2023-01-18T00:15:52.184Z,-0.80
2023-01-18T00:17:54.340Z,-0.80
2023-01-18T00:19:56.079Z,-0.80
2023-01-18T00:21:57.807Z,-0.90
2023-01-18T00:23:59.825Z,-1.00
2023-01-18T00:26:03.666Z,-1.00
2023-01-18T00:28:05.533Z,-1.00
2023-01-18T00:30:08.540Z,-0.90
2023-01-18T00:32:10.395Z,-0.90
2023-01-18T00:34:12.330Z,-0.80
2023-01-18T00:36:15.429Z,-0.80
2023-01-18T00:38:17.057Z,-0.80
2023-01-18T00:40:22.949Z,-0.80
2023-01-18T00:42:43.062Z,-0.80
2023-01-18T00:44:44.685Z,-0.80
2023-01-18T00:46:48.570Z,-0.70
2023-01-18T00:48:51.798Z,-0.70
2023-01-18T00:50:53.685Z,-0.60
2023-01-18T00:52:58.635Z,-0.60
2023-01-18T00:55:02.160Z,-0.60
2023-01-18T00:57:04.079Z,-0.70
2023-01-18T00:59:06.074Z,-0.70
2023-01-18T01:01:08.385Z,-0.70
2023-01-18T01:03:10.428Z,-0.70
2023-01-18T01:05:39.184Z,-0.70
2023-01-18T01:07:41.054Z,-0.70
2023-01-18T01:09:44.453Z,-0.70
2023-01-18T01:12:05.821Z,-0.70
2023-01-18T01:14:27.643Z,-0.70
2023-01-18T01:16:47.786Z,-0.70
2023-01-18T01:19:08.179Z,-0.60
2023-01-18T01:21:28.484Z,-0.60
2023-01-18T01:23:48.702Z,-0.70
2023-01-18T01:26:08.604Z,-0.70
2023-01-18T01:28:10.235Z,-0.70
2023-01-18T01:30:12.047Z,-0.70
2023-01-18T01:32:13.739Z,-0.70
2023-01-18T01:34:15.434Z,-0.70
2023-01-18T01:36:20.580Z,-0.70
2023-01-18T01:38:22.335Z,-0.70
2023-01-18T01:40:24.310Z,-0.70
2023-01-18T01:42:25.942Z,-0.70
2023-01-18T01:44:29.953Z,-0.70
2023-01-18T01:46:55.443Z,-0.80
2023-01-18T01:49:17.199Z,-0.80
2023-01-18T01:51:20.009Z,-0.70
2023-01-18T01:53:23.010Z,-0.70
2023-01-18T01:55:37.663Z,-0.70
2023-01-18T01:57:58.789Z,-0.70
2023-01-18T02:00:11.448Z,-0.70
2023-01-18T02:02:13.562Z,-0.70
2023-01-18T02:04:15.490Z,-0.70
2023-01-18T02:06:32.236Z,-0.70
2023-01-18T02:08:34.187Z,-0.70
2023-01-18T02:10:36.020Z,-0.60
2023-01-18T02:12:40.789Z,-0.60
2023-01-18T02:14:42.813Z,-0.60
2023-01-18T02:16:53.649Z,-0.60
2023-01-18T02:19:16.892Z,-0.60
2023-01-18T02:21:20.268Z,-0.60
2023-01-18T02:23:43.626Z,-0.60
2023-01-18T02:26:00.426Z,-0.70
2023-01-18T02:28:05.354Z,-0.70
2023-01-18T02:30:25.178Z,-0.70
2023-01-18T02:32:42.114Z,-0.70
2023-01-18T02:34:55.451Z,-0.80
2023-01-18T02:37:16.802Z,-0.80
2023-01-18T02:39:39.120Z,-0.70
2023-01-18T02:42:11.971Z,-0.70
2023-01-18T02:44:36.750Z,-0.70
2023-01-18T02:46:40.436Z,-0.70
2023-01-18T02:48:44.034Z,-0.70
2023-01-18T02:50:45.742Z,-0.70
2023-01-18T02:52:47.625Z,-0.80
2023-01-18T02:54:49.588Z,-0.80
2023-01-18T02:56:54.154Z,-0.70
2023-01-18T02:59:23.221Z,-0.80
2023-01-18T03:01:34.783Z,-0.80
2023-01-18T03:03:37.413Z,-0.90
2023-01-18T03:05:41.781Z,-0.80
2023-01-18T03:07:54.854Z,-0.90
2023-01-18T03:09:58.088Z,-0.90
2023-01-18T03:12:09.225Z,-0.90
2023-01-18T03:14:40.919Z,-0.90
2023-01-18T03:17:01.033Z,-1.00
2023-01-18T03:19:37.454Z,-0.90
2023-01-18T03:21:42.139Z,-0.90
2023-01-18T03:23:45.787Z,-0.90
2023-01-18T03:25:50.548Z,-1.00
2023-01-18T03:28:12.646Z,-1.00
2023-01-18T03:30:33.058Z,-1.00
2023-01-18T03:32:54.000Z,-0.90
2023-01-18T03:35:08.176Z,-1.00
2023-01-18T03:37:19.446Z,-1.00
2023-01-18T03:39:28.438Z,-1.00
2023-01-18T03:41:33.684Z,-1.00
2023-01-18T03:43:37.814Z,-1.00
2023-01-18T03:45:44.543Z,-1.00
2023-01-18T03:47:50.416Z,-1.00
2023-01-18T03:49:52.137Z,-1.10
2023-01-18T03:52:18.967Z,-1.10
2023-01-18T03:54:44.640Z,-1.10
2023-01-18T03:56:54.960Z,-1.10
2023-01-18T03:58:58.985Z,-1.10
2023-01-18T04:01:04.043Z,-1.10
2023-01-18T04:03:06.502Z,-1.10
2023-01-18T04:05:08.774Z,-1.10
2023-01-18T04:07:10.456Z,-1.10
2023-01-18T04:09:12.581Z,-1.00
2023-01-18T04:11:14.237Z,-1.00
2023-01-18T04:13:15.986Z,-1.00
2023-01-18T04:15:17.707Z,-1.00
2023-01-18T04:17:19.971Z,-1.10
2023-01-18T04:19:21.975Z,-1.00
2023-01-18T04:21:23.870Z,-1.00
2023-01-18T04:23:25.573Z,-1.10
2023-01-18T04:25:27.536Z,-1.10
2023-01-18T04:27:29.583Z,-1.20
2023-01-18T04:29:31.338Z,-1.20
2023-01-18T04:31:33.118Z,-1.10
2023-01-18T04:33:34.976Z,-1.20
2023-01-18T04:35:37.013Z,-1.20
2023-01-18T04:37:38.923Z,-1.20
2023-01-18T04:39:40.688Z,-1.20
2023-01-18T04:41:42.877Z,-1.20
2023-01-18T04:43:44.678Z,-1.20
2023-01-18T04:45:54.764Z,-1.20
2023-01-18T04:47:56.532Z,-1.20
2023-01-18T04:49:58.180Z,-1.20
2023-01-18T04:51:59.889Z,-1.10
2023-01-18T04:54:01.682Z,-1.10
2023-01-18T04:56:03.628Z,-1.10
2023-01-18T04:58:05.302Z,-1.20
2023-01-18T05:00:09.093Z,-1.20
2023-01-18T05:02:10.709Z,-1.20
2023-01-18T05:04:12.456Z,-1.20
2023-01-18T05:06:16.218Z,-1.20
2023-01-18T05:08:18.019Z,-1.20
2023-01-18T05:10:19.765Z,-1.20
2023-01-18T05:12:21.645Z,-1.20
2023-01-18T05:14:23.345Z,-1.30
2023-01-18T05:16:25.334Z,-1.30
2023-01-18T05:18:27.315Z,-1.30
2023-01-18T05:20:29.000Z,-1.20
2023-01-18T05:22:33.005Z,-1.30
2023-01-18T05:24:34.775Z,-1.30
2023-01-18T05:26:36.482Z,-1.30
2023-01-18T05:28:38.252Z,-1.30
2023-01-18T05:30:43.153Z,-1.30
2023-01-18T05:32:44.879Z,-1.30
2023-01-18T05:34:46.611Z,-1.20
2023-01-18T05:36:48.661Z,-1.20
2023-01-18T05:38:50.576Z,-1.30
2023-01-18T05:40:54.249Z,-1.30
2023-01-18T05:42:56.332Z,-1.30
2023-01-18T05:44:58.261Z,-1.30
2023-01-18T05:47:00.051Z,-1.30
2023-01-18T05:49:01.775Z,-1.30
2023-01-18T05:51:09.024Z,-1.30
2023-01-18T05:53:11.577Z,-1.30
2023-01-18T05:55:13.643Z,-1.30
2023-01-18T05:57:15.311Z,-1.30
2023-01-18T05:59:17.140Z,-1.30
2023-01-18T06:01:19.197Z,-1.30
2023-01-18T06:03:21.687Z,-1.40
2023-01-18T06:05:24.615Z,-1.30
2023-01-18T06:07:26.300Z,-1.40
2023-01-18T06:09:29.999Z,-1.40
2023-01-18T06:11:32.069Z,-1.40
2023-01-18T06:13:34.347Z,-1.40
2023-01-18T06:15:36.823Z,-1.50
2023-01-18T06:17:38.835Z,-1.60
2023-01-18T06:19:40.628Z,-1.50
2023-01-18T06:21:42.589Z,-1.60
2023-01-18T06:23:44.466Z,-1.60
2023-01-18T06:25:46.523Z,-1.60
2023-01-18T06:27:48.173Z,-1.60
2023-01-18T06:29:50.344Z,-1.60
2023-01-18T06:31:52.352Z,-1.60
2023-01-18T06:33:54.044Z,-1.60
2023-01-18T06:35:55.799Z,-1.60
2023-01-18T06:37:57.574Z,-1.60
2023-01-18T06:40:01.266Z,-1.60
2023-01-18T06:42:04.308Z,-1.60
2023-01-18T06:44:06.427Z,-1.60
2023-01-18T06:46:09.826Z,-1.50
2023-01-18T06:48:11.494Z,-1.60
2023-01-18T06:50:13.179Z,-1.50
2023-01-18T06:52:15.541Z,-1.50
2023-01-18T06:54:17.414Z,-1.50
2023-01-18T06:56:19.090Z,-1.50
2023-01-18T06:58:20.861Z,-1.50
2023-01-18T07:00:23.691Z,-1.50
2023-01-18T07:02:25.367Z,-1.50
2023-01-18T07:04:27.251Z,-1.50
2023-01-18T07:06:29.050Z,-1.50
2023-01-18T07:08:31.554Z,-1.50
2023-01-18T07:10:33.619Z,-1.50
2023-01-18T07:12:35.741Z,-1.50
2023-01-18T07:14:37.526Z,-1.50
2023-01-18T07:16:39.569Z,-1.50
2023-01-18T07:18:44.153Z,-1.40
2023-01-18T07:20:45.776Z,-1.50
2023-01-18T07:22:52.616Z,-1.50
2023-01-18T07:24:54.370Z,-1.50
2023-01-18T07:26:56.222Z,-1.50
2023-01-18T07:28:58.072Z,-1.50
2023-01-18T07:31:01.008Z,-1.50
2023-01-18T07:33:02.695Z,-1.40
2023-01-18T07:35:05.341Z,-1.50
2023-01-18T07:37:07.087Z,-1.50
2023-01-18T07:39:09.907Z,-1.50
2023-01-18T07:41:17.002Z,-1.50
2023-01-18T07:43:18.817Z,-1.50
2023-01-18T07:45:21.181Z,-1.40
2023-01-18T07:47:23.144Z,-1.40
2023-01-18T07:49:24.883Z,-1.40
2023-01-18T07:51:26.654Z,-1.40
2023-01-18T07:53:29.735Z,-1.40
2023-01-18T07:55:32.714Z,-1.40
2023-01-18T07:57:34.613Z,-1.40
2023-01-18T07:59:36.253Z,-1.30
2023-01-18T08:01:38.064Z,-1.30
2023-01-18T08:03:41.786Z,-1.40
2023-01-18T08:05:44.479Z,-1.30
2023-01-18T08:07:46.291Z,-1.40
2023-01-18T08:09:48.194Z,-1.30
2023-01-18T08:11:49.947Z,-1.30
2023-01-18T08:13:52.853Z,-1.30
2023-01-18T08:15:55.801Z,-1.20
2023-01-18T08:18:00.949Z,-1.30
2023-01-18T08:20:02.739Z,-1.20
2023-01-18T08:22:04.755Z,-1.20
2023-01-18T08:24:06.799Z,-1.30
2023-01-18T08:26:10.384Z,-1.30
2023-01-18T08:28:12.119Z,-1.30
2023-01-18T08:30:14.136Z,-1.30
2023-01-18T08:32:15.865Z,-1.30
2023-01-18T08:34:17.594Z,-1.20
2023-01-18T08:36:24.735Z,-1.20
2023-01-18T08:38:26.600Z,-1.20
2023-01-18T08:40:29.417Z,-1.20
2023-01-18T08:42:31.218Z,-1.20
2023-01-18T08:44:32.921Z,-1.20
2023-01-18T08:46:36.354Z,-1.30
2023-01-18T08:48:38.258Z,-1.30
2023-01-18T08:50:40.317Z,-1.30
2023-01-18T08:52:42.335Z,-1.20
2023-01-18T08:54:44.163Z,-1.10
2023-01-18T08:56:45.947Z,-1.10
2023-01-18T08:58:47.746Z,-1.20
2023-01-18T09:00:50.813Z,-1.20
2023-01-18T09:02:52.614Z,-1.30
2023-01-18T09:04:55.129Z,-1.20
2023-01-18T09:06:57.095Z,-1.10
2023-01-18T09:08:59.647Z,-1.10
2023-01-18T09:11:07.030Z,-1.00
2023-01-18T09:13:10.891Z,-1.00
2023-01-18T09:15:13.180Z,-1.00
2023-01-18T09:17:14.896Z,-1.00
2023-01-18T09:19:16.937Z,-0.90
2023-01-18T09:21:18.705Z,-0.90
2023-01-18T09:23:21.046Z,-0.90
2023-01-18T09:25:23.088Z,-0.90
2023-01-18T09:27:24.945Z,-0.90
2023-01-18T09:29:26.625Z,-1.00
2023-01-18T09:31:29.471Z,-0.90
2023-01-18T09:33:37.449Z,-0.80
2023-01-18T09:35:40.156Z,-0.80
2023-01-18T09:37:41.961Z,-0.70
2023-01-18T09:39:51.836Z,-0.80
2023-01-18T09:41:58.288Z,-0.80
2023-01-18T09:44:07.627Z,-0.80
2023-01-18T09:46:19.449Z,-0.90
2023-01-18T09:48:31.318Z,-0.90
2023-01-18T09:50:41.815Z,-1.00
2023-01-18T09:53:09.672Z,-1.10
2023-01-18T09:55:23.256Z,-1.20
2023-01-18T09:57:57.881Z,-1.20
2023-01-18T10:00:01.429Z,-1.20
2023-01-18T10:02:12.973Z,-1.30
2023-01-18T10:04:32.836Z,-1.30
2023-01-18T10:06:55.441Z,-1.30
2023-01-18T10:09:07.428Z,-1.30
2023-01-18T10:11:37.878Z,-1.30
2023-01-18T10:14:00.598Z,-1.20
2023-01-18T10:16:03.353Z,-1.30
2023-01-18T10:18:05.211Z,-1.30
2023-01-18T10:20:14.465Z,-1.20
2023-01-18T10:22:18.633Z,-1.20
2023-01-18T10:24:39.710Z,-1.10
2023-01-18T10:26:42.082Z,-1.10
2023-01-18T10:28:45.297Z,-1.10
2023-01-18T10:31:15.004Z,-1.10
2023-01-18T10:33:29.216Z,-0.90
2023-01-18T10:35:36.442Z,-0.90
2023-01-18T10:37:45.414Z,-0.80
2023-01-18T10:40:17.282Z,-0.80
2023-01-18T10:42:45.399Z,-0.70
2023-01-18T10:44:47.793Z,-0.60
2023-01-18T10:46:49.668Z,-0.70
2023-01-18T10:48:53.514Z,-0.70
2023-01-18T10:51:06.699Z,-0.70
2023-01-18T10:53:30.883Z,-0.60
2023-01-18T10:55:33.329Z,-0.50
2023-01-18T10:57:43.885Z,-0.50
2023-01-18T10:59:45.678Z,-0.50
2023-01-18T11:01:54.834Z,-0.60
2023-01-18T11:04:06.774Z,-0.50
2023-01-18T11:06:08.691Z,-0.50
2023-01-18T11:08:22.403Z,-0.40
2023-01-18T11:10:28.414Z,-0.30
2023-01-18T11:12:34.447Z,-0.20
2023-01-18T11:14:36.199Z,-0.30
2023-01-18T11:16:42.456Z,-0.30
2023-01-18T11:19:05.084Z,-0.30
2023-01-18T11:21:11.189Z,-0.40
2023-01-18T11:23:21.254Z,-0.40
2023-01-18T11:25:22.979Z,-0.50
2023-01-18T11:27:25.473Z,-0.50
2023-01-18T11:29:34.183Z,-0.40
2023-01-18T11:31:47.595Z,-0.40
2023-01-18T11:33:57.463Z,-0.40
2023-01-18T11:36:02.185Z,-0.50
2023-01-18T11:38:06.911Z,-0.50
2023-01-18T11:40:21.206Z,-0.70
2023-01-18T11:42:25.085Z,-0.70
2023-01-18T11:44:34.983Z,-0.70
2023-01-18T11:46:40.136Z,-0.70
2023-01-18T11:48:50.158Z,-0.80
2023-01-18T11:51:00.889Z,-0.80
2023-01-18T11:53:20.971Z,-0.70
2023-01-18T11:55:24.859Z,-0.80
2023-01-18T11:57:28.431Z,-0.70
2023-01-18T11:59:33.806Z,-0.70
2023-01-18T12:02:08.963Z,-0.70
2023-01-18T12:04:53.751Z,-0.90
2023-01-18T12:07:25.069Z,-0.90
2023-01-18T12:09:46.720Z,-1.00
2023-01-18T12:12:18.552Z,-1.10
2023-01-18T12:14:27.115Z,-1.10
2023-01-18T12:17:01.930Z,-1.10
2023-01-18T12:19:24.771Z,-1.10
2023-01-18T12:21:29.523Z,-0.90
2023-01-18T12:23:46.299Z,-1.00
2023-01-18T12:26:13.584Z,-1.00
2023-01-18T12:28:31.661Z,-1.10
2023-01-18T12:30:59.617Z,-1.10
2023-01-18T12:33:43.141Z,-1.00
2023-01-18T12:36:00.374Z,-1.00
2023-01-18T12:38:24.783Z,-1.00
2023-01-18T12:40:45.110Z,-0.90
2023-01-18T12:43:11.899Z,-0.90
2023-01-18T12:45:31.975Z,-0.90
2023-01-18T12:47:40.669Z,-0.90
2023-01-18T12:49:47.404Z,-1.00
2023-01-18T12:52:09.208Z,-1.00
2023-01-18T12:54:36.006Z,-1.00
2023-01-18T12:56:42.252Z,-1.00
2023-01-18T12:58:44.470Z,-1.00
2023-01-18T13:00:54.668Z,-1.00
2023-01-18T13:02:57.660Z,-1.00
2023-01-18T13:05:11.708Z,-1.00
2023-01-18T13:07:20.203Z,-1.00
2023-01-18T13:09:34.674Z,-1.10
2023-01-18T13:11:41.518Z,-1.10
2023-01-18T13:13:47.767Z,-1.10
2023-01-18T13:16:13.333Z,-1.00
2023-01-18T13:18:19.087Z,-1.00
2023-01-18T13:20:39.082Z,-0.90
2023-01-18T13:22:59.129Z,-0.80
2023-01-18T13:25:42.677Z,-0.70
2023-01-18T13:28:00.360Z,-0.70
2023-01-18T13:30:16.692Z,-0.70
2023-01-18T13:32:38.469Z,-0.70
2023-01-18T13:34:48.120Z,-0.70
2023-01-18T13:36:50.670Z,-0.70
2023-01-18T13:39:01.376Z,-0.60
2023-01-18T13:41:09.581Z,-0.60
2023-01-18T13:43:43.415Z,-0.60
2023-01-18T13:46:14.488Z,-0.70
2023-01-18T13:48:52.967Z,-0.60
2023-01-18T13:50:54.827Z,-0.60
2023-01-18T13:53:14.717Z,-0.60
2023-01-18T13:55:31.254Z,-0.60
2023-01-18T13:57:35.055Z,-0.60
2023-01-18T13:59:36.879Z,-0.60
2023-01-18T14:01:43.199Z,-0.70
2023-01-18T14:03:49.479Z,-0.70
2023-01-18T14:05:52.574Z,-0.80
2023-01-18T14:07:57.554Z,-0.80
2023-01-18T14:10:03.571Z,-0.80
2023-01-18T14:12:06.420Z,-0.80
2023-01-18T14:14:15.981Z,-0.80
2023-01-18T14:16:21.435Z,-0.70
2023-01-18T14:18:30.454Z,-0.60
2023-01-18T14:20:43.386Z,-0.70
2023-01-18T14:22:54.979Z,-0.60
2023-01-18T14:25:40.300Z,-0.60
2023-01-18T14:27:46.478Z,-0.60
2023-01-18T14:29:50.478Z,-0.60
2023-01-18T14:31:54.809Z,-0.60
2023-01-18T14:33:56.623Z,-0.70
2023-01-18T14:35:59.364Z,-0.70
2023-01-18T14:38:18.708Z,-0.70
2023-01-18T14:40:25.103Z,-0.70
2023-01-18T14:42:27.494Z,-0.80
2023-01-18T14:44:57.256Z,-0.90
2023-01-18T14:47:01.474Z,-0.90
2023-01-18T14:49:16.304Z,-0.90
2023-01-18T14:51:22.395Z,-0.90
2023-01-18T14:53:27.780Z,-0.90
2023-01-18T14:55:35.049Z,-0.90
2023-01-18T14:57:36.774Z,-0.90
2023-01-18T14:59:51.743Z,-0.90
2023-01-18T15:02:02.200Z,-0.90
2023-01-18T15:04:23.779Z,-0.90
2023-01-18T15:06:30.161Z,-0.90
2023-01-18T15:08:34.592Z,-0.90
2023-01-18T15:10:36.929Z,-0.80
2023-01-18T15:12:39.250Z,-0.80
2023-01-18T15:14:47.114Z,-0.80
2023-01-18T15:16:51.349Z,-0.80
2023-01-18T15:18:55.542Z,-0.80
2023-01-18T15:20:59.413Z,-0.90
2023-01-18T15:23:01.508Z,-0.80
2023-01-18T15:25:06.870Z,-0.90
2023-01-18T15:27:17.045Z,-0.90
2023-01-18T15:29:26.495Z,-0.90
2023-01-18T15:31:28.518Z,-0.90
2023-01-18T15:33:32.222Z,-0.90
2023-01-18T15:35:34.079Z,-0.90
2023-01-18T15:37:40.107Z,-0.90
2023-01-18T15:39:58.309Z,-0.90
2023-01-18T15:42:08.850Z,-1.00
2023-01-18T15:44:28.273Z,-0.90
2023-01-18T15:46:30.252Z,-0.90
2023-01-18T15:48:46.383Z,-0.90
2023-01-18T15:50:49.482Z,-1.00
2023-01-18T15:53:06.221Z,-1.00
2023-01-18T15:55:32.493Z,-1.00
2023-01-18T15:57:36.370Z,-1.00
2023-01-18T15:59:41.885Z,-1.00
2023-01-18T16:01:46.368Z,-1.00
2023-01-18T16:03:48.177Z,-1.10
2023-01-18T16:05:58.829Z,-1.10
2023-01-18T16:08:30.071Z,-1.10
2023-01-18T16:10:31.821Z,-1.10
2023-01-18T16:12:34.301Z,-1.10
2023-01-18T16:14:38.331Z,-1.10
2023-01-18T16:16:42.377Z,-1.10
2023-01-18T16:19:24.835Z,-1.10
2023-01-18T16:21:48.556Z,-1.10
2023-01-18T16:23:52.447Z,-1.10
2023-01-18T16:26:01.979Z,-1.10
2023-01-18T16:28:05.248Z,-1.10
2023-01-18T16:30:23.364Z,-1.00
2023-01-18T16:32:25.357Z,-1.00
2023-01-18T16:34:27.138Z,-1.10
2023-01-18T16:36:34.728Z,-1.00
2023-01-18T16:38:39.753Z,-1.10
2023-01-18T16:40:44.974Z,-1.10
2023-01-18T16:43:02.686Z,-1.10
2023-01-18T16:45:05.005Z,-1.10
2023-01-18T16:47:06.824Z,-1.20
2023-01-18T16:49:12.772Z,-1.20
2023-01-18T16:51:17.384Z,-1.20
2023-01-18T16:53:19.477Z,-1.10
2023-01-18T16:55:21.463Z,-1.20
2023-01-18T16:57:24.320Z,-1.20
2023-01-18T16:59:26.041Z,-1.20
2023-01-18T17:01:28.109Z,-1.20
2023-01-18T17:03:29.825Z,-1.30
2023-01-18T17:05:31.586Z,-1.30
2023-01-18T17:07:33.261Z,-1.30
2023-01-18T17:09:47.327Z,-1.30
2023-01-18T17:11:50.497Z,-1.30
2023-01-18T17:13:52.242Z,-1.30
2023-01-18T17:15:54.066Z,-1.30
2023-01-18T17:17:55.823Z,-1.30
2023-01-18T17:19:57.497Z,-1.30
2023-01-18T17:21:59.206Z,-1.30
2023-01-18T17:24:00.884Z,-1.30
2023-01-18T17:26:03.009Z,-1.30
2023-01-18T17:28:05.415Z,-1.30
2023-01-18T17:30:08.101Z,-1.20
2023-01-18T17:32:10.289Z,-1.20
2023-01-18T17:34:15.727Z,-1.30
2023-01-18T17:36:17.527Z,-1.30
2023-01-18T17:38:24.861Z,-1.30
2023-01-18T17:40:38.108Z,-1.30
2023-01-18T17:42:40.748Z,-1.30
2023-01-18T17:44:43.182Z,-1.30
2023-01-18T17:46:44.929Z,-1.30
2023-01-18T17:48:46.769Z,-1.30
2023-01-18T17:50:48.509Z,-1.30
2023-01-18T17:52:50.978Z,-1.30
2023-01-18T17:54:52.765Z,-1.40
2023-01-18T17:56:54.426Z,-1.40
2023-01-18T17:58:56.095Z,-1.50
2023-01-18T18:01:05.075Z,-1.50
2023-01-18T18:03:07.769Z,-1.50
2023-01-18T18:05:10.703Z,-1.60
2023-01-18T18:07:12.508Z,-1.60
2023-01-18T18:09:14.231Z,-1.60
2023-01-18T18:11:15.977Z,-1.60
2023-01-18T18:13:19.205Z,-1.70
2023-01-18T18:15:22.335Z,-1.80
2023-01-18T18:17:26.406Z,-1.80
2023-01-18T18:19:29.150Z,-1.80
2023-01-18T18:21:31.168Z,-1.90
2023-01-18T18:23:34.250Z,-1.90
2023-01-18T18:25:35.993Z,-1.90
2023-01-18T18:27:45.355Z,-1.90
2023-01-18T18:29:47.840Z,-1.90
2023-01-18T18:31:49.621Z,-1.90
2023-01-18T18:33:51.523Z,-2.00
2023-01-18T18:35:53.400Z,-2.00
2023-01-18T18:37:55.809Z,-2.00
2023-01-18T18:39:57.589Z,-2.00
2023-01-18T18:41:59.556Z,-2.10
2023-01-18T18:44:01.577Z,-2.10
2023-01-18T18:46:03.321Z,-2.10
2023-01-18T18:48:05.359Z,-2.20
2023-01-18T18:50:07.376Z,-2.20
2023-01-18T18:52:09.226Z,-2.30
2023-01-18T18:54:11.656Z,-2.30
2023-01-18T18:56:13.478Z,-2.40
2023-01-18T18:58:15.237Z,-2.40
2023-01-18T19:00:17.453Z,-2.40
2023-01-18T19:02:19.410Z,-2.40
2023-01-18T19:04:21.179Z,-2.40
2023-01-18T19:06:25.052Z,-2.40
2023-01-18T19:08:26.829Z,-2.40
2023-01-18T19:10:30.503Z,-2.50
2023-01-18T19:12:32.881Z,-2.50
2023-01-18T19:14:34.725Z,-2.50
2023-01-18T19:16:37.293Z,-2.50
2023-01-18T19:18:39.087Z,-2.50
2023-01-18T19:20:41.414Z,-2.50
2023-01-18T19:22:43.330Z,-2.50
2023-01-18T19:24:45.001Z,-2.60
2023-01-18T19:26:46.626Z,-2.60
2023-01-18T19:28:48.357Z,-2.70
2023-01-18T19:30:50.350Z,-2.70
2023-01-18T19:32:53.223Z,-2.60
2023-01-18T19:34:55.242Z,-2.60
2023-01-18T19:36:57.099Z,-2.60
2023-01-18T19:39:00.239Z,-2.50
2023-01-18T19:41:03.085Z,-2.50
2023-01-18T19:43:05.022Z,-2.50
2023-01-18T19:45:09.728Z,-2.50
2023-01-18T19:47:13.371Z,-2.50
2023-01-18T19:49:15.016Z,-2.50
2023-01-18T19:51:22.837Z,-2.50
2023-01-18T19:53:28.543Z,-2.60
2023-01-18T19:55:30.466Z,-2.70
2023-01-18T19:57:32.474Z,-2.70
2023-01-18T19:59:34.408Z,-2.80
2023-01-18T20:01:37.390Z,-2.80
2023-01-18T20:03:39.457Z,-2.70
2023-01-18T20:05:44.926Z,-2.80
2023-01-18T20:07:46.831Z,-2.80
2023-01-18T20:09:48.501Z,-2.80
2023-01-18T20:11:50.302Z,-2.80
2023-01-18T20:13:52.253Z,-2.80
2023-01-18T20:15:54.902Z,-2.80
2023-01-18T20:17:56.748Z,-2.80
2023-01-18T20:19:58.459Z,-2.80
2023-01-18T20:22:00.154Z,-2.80
2023-01-18T20:24:01.876Z,-2.80
2023-01-18T20:26:04.476Z,-2.70
2023-01-18T20:28:06.271Z,-2.70
2023-01-18T20:30:09.073Z,-2.70
2023-01-18T20:32:18.734Z,-2.70
2023-01-18T20:34:20.664Z,-2.70
2023-01-18T20:36:22.354Z,-2.70
2023-01-18T20:38:24.232Z,-2.80
2023-01-18T20:40:26.042Z,-2.80
2023-01-18T20:42:27.741Z,-2.80
2023-01-18T20:44:29.771Z,-2.90
2023-01-18T20:46:31.482Z,-3.00
2023-01-18T20:48:34.540Z,-2.90
2023-01-18T20:50:36.292Z,-2.90
2023-01-18T20:52:38.038Z,-2.90
2023-01-18T20:54:39.881Z,-2.90
2023-01-18T20:56:41.762Z,-2.90
2023-01-18T20:58:43.450Z,-2.80
2023-01-18T21:00:45.134Z,-2.80
2023-01-18T21:02:46.937Z,-2.80
2023-01-18T21:04:48.695Z,-2.80
2023-01-18T21:06:50.389Z,-2.80
2023-01-18T21:08:53.116Z,-2.90
2023-01-18T21:10:54.801Z,-2.90
2023-01-18T21:12:57.342Z,-3.00
2023-01-18T21:14:59.655Z,-3.00
2023-01-18T21:17:01.355Z,-3.10
2023-01-18T21:19:03.223Z,-3.20
2023-01-18T21:21:05.221Z,-3.20
2023-01-18T21:23:06.965Z,-3.20
2023-01-18T21:25:09.122Z,-3.20
2023-01-18T21:27:10.939Z,-3.10
2023-01-18T21:29:12.642Z,-3.10
2023-01-18T21:31:14.391Z,-3.10
2023-01-18T21:33:16.254Z,-3.10
2023-01-18T21:35:18.937Z,-3.10
2023-01-18T21:37:20.729Z,-3.20
2023-01-18T21:39:25.620Z,-3.20
2023-01-18T21:41:46.260Z,-3.10
2023-01-18T21:44:07.087Z,-3.10
2023-01-18T21:46:11.202Z,-3.20
2023-01-18T21:48:12.979Z,-3.20
2023-01-18T21:50:33.711Z,-3.20
2023-01-18T21:52:56.494Z,-3.20
2023-01-18T21:54:58.213Z,-3.30
2023-01-18T21:56:59.924Z,-3.40
2023-01-18T21:59:02.748Z,-3.50
2023-01-18T22:01:19.330Z,-3.60
2023-01-18T22:03:21.147Z,-3.60
2023-01-18T22:05:22.971Z,-3.70
2023-01-18T22:07:25.094Z,-3.70
2023-01-18T22:09:28.608Z,-3.80
2023-01-18T22:11:30.739Z,-3.80
2023-01-18T22:13:33.094Z,-3.80
2023-01-18T22:15:35.174Z,-3.80
2023-01-18T22:17:37.570Z,-3.80
2023-01-18T22:19:40.400Z,-3.80
2023-01-18T22:21:42.746Z,-3.80
2023-01-18T22:23:45.850Z,-3.90
2023-01-18T22:25:47.554Z,-3.90
2023-01-18T22:27:49.543Z,-3.80
2023-01-18T22:29:51.496Z,-3.80
2023-01-18T22:31:53.250Z,-3.80
2023-01-18T22:33:55.914Z,-3.80
2023-01-18T22:35:58.866Z,-3.80
2023-01-18T22:38:00.869Z,-3.70
2023-01-18T22:40:02.962Z,-3.70
2023-01-18T22:42:04.901Z,-3.60
2023-01-18T22:44:06.589Z,-3.60
2023-01-18T22:46:08.994Z,-3.70
2023-01-18T22:48:10.665Z,-3.70
2023-01-18T22:50:12.616Z,-3.70
2023-01-18T22:52:14.345Z,-3.80
2023-01-18T22:54:16.207Z,-3.80
2023-01-18T22:56:21.561Z,-3.90
2023-01-18T22:58:23.365Z,-3.90
2023-01-18T23:00:25.180Z,-3.90
2023-01-18T23:02:26.910Z,-4.00
2023-01-18T23:04:29.429Z,-4.00
2023-01-18T23:07:01.481Z,-4.00
2023-01-18T23:09:03.381Z,-4.00
2023-01-18T23:11:05.511Z,-4.00
2023-01-18T23:13:07.593Z,-4.00
2023-01-18T23:15:30.255Z,-4.00
2023-01-18T23:17:42.416Z,-4.00
2023-01-18T23:19:44.231Z,-4.10
2023-01-18T23:21:46.155Z,-4.10
2023-01-18T23:23:48.690Z,-4.10
2023-01-18T23:25:57.428Z,-4.10
2023-01-18T23:28:03.384Z,-4.10
2023-01-18T23:30:05.988Z,-4.10
2023-01-18T23:32:08.138Z,-4.10
2023-01-18T23:34:10.444Z,-4.10
2023-01-18T23:36:12.550Z,-4.10
2023-01-18T23:38:14.427Z,-4.10
2023-01-18T23:40:35.047Z,-4.10
2023-01-18T23:42:55.166Z,-4.00
2023-01-18T23:45:15.582Z,-4.00
2023-01-18T23:47:35.709Z,-4.00
2023-01-18T23:49:56.391Z,-4.10
2023-01-18T23:52:16.863Z,-4.10
2023-01-18T23:54:18.882Z,-4.00
2023-01-18T23:56:20.645Z,-4.00
2023-01-18T23:58:22.415Z,-4.00
